Time;durP1;ratioP1;P1;durP2;ratioP2;P2;SDS_P1;SDS_P2;PMS_P1;PMS_P2;Temp;Humidity;BMP_temperature;BMP_pressure;BME280_temperature;BME280_humidity;BME280_pressure;Samples;Min_cycle;Max_cycle;Signal;HPM_P1;HPM_P2
2022/10/17 00:00:43;;;;;;;5.13;1.83;;;14.30;99.90;;;;;;5073877;28;20236;-58
2022/10/17 00:03:10;;;;;;;7.93;1.83;;;14.30;99.90;;;;;;5074278;28;20201;-58
2022/10/17 00:05:40;;;;;;;7.83;1.93;;;14.30;99.90;;;;;;5074086;28;20205;-57
2022/10/17 00:08:07;;;;;;;9.83;2.10;;;14.40;99.90;;;;;;5073678;28;20208;-59
2022/10/17 00:10:34;;;;;;;8.87;2.00;;;14.50;99.90;;;;;;5074286;28;20320;-56
2022/10/17 00:13:01;;;;;;;11.10;1.70;;;14.50;99.90;;;;;;5073787;28;20614;-57
2022/10/17 00:15:29;;;;;;;8.10;2.10;;;14.50;99.90;;;;;;5073733;28;20209;-57
2022/10/17 00:17:56;;;;;;;5.70;1.80;;;14.40;99.90;;;;;;5073019;28;20224;-57
2022/10/17 00:20:23;;;;;;;5.87;1.90;;;14.40;99.90;;;;;;5073419;28;20576;-56
2022/10/17 00:22:50;;;;;;;5.10;1.87;;;14.40;99.90;;;;;;5073522;28;20205;-56
2022/10/17 00:25:17;;;;;;;6.87;2.00;;;14.40;99.90;;;;;;5073414;28;20204;-57
2022/10/17 00:27:44;;;;;;;8.87;1.90;;;14.40;99.90;;;;;;5072684;28;20209;-56
2022/10/17 00:30:14;;;;;;;6.90;1.70;;;14.50;99.90;;;;;;5073286;28;20225;-56
2022/10/17 00:32:43;;;;;;;6.47;2.03;;;14.50;99.90;;;;;;5073056;28;20201;-57
2022/10/17 00:35:10;;;;;;;7.33;2.43;;;14.50;99.90;;;;;;5073541;28;20204;-56
2022/10/17 00:37:37;;;;;;;4.60;1.53;;;14.50;99.90;;;;;;5072812;28;20273;-57
2022/10/17 00:40:05;;;;;;;5.00;1.57;;;14.60;99.90;;;;;;5072924;28;20693;-56
2022/10/17 00:42:32;;;;;;;6.43;1.73;;;14.60;99.90;;;;;;5073092;28;20221;-57
2022/10/17 00:45:07;;;;;;;10.63;2.00;;;14.50;99.90;;;;;;5072921;28;20227;-57
2022/10/17 00:47:35;;;;;;;8.73;2.00;;;14.50;99.90;;;;;;5072910;28;20265;-57
2022/10/17 00:50:03;;;;;;;3.73;1.70;;;14.40;99.90;;;;;;5072811;28;20709;-56
2022/10/17 00:52:30;;;;;;;9.80;2.00;;;14.40;99.90;;;;;;5073032;28;20295;-57
2022/10/17 00:55:01;;;;;;;6.73;2.20;;;14.30;99.90;;;;;;5073173;28;20673;-56
2022/10/17 00:57:31;;;;;;;4.20;1.70;;;14.40;99.90;;;;;;5072354;28;20216;-56
2022/10/17 01:00:02;;;;;;;11.23;1.63;;;14.40;99.90;;;;;;5073156;28;20649;-57
2022/10/17 01:02:28;;;;;;;4.70;1.57;;;14.40;99.90;;;;;;5072972;28;20228;-56
2022/10/17 01:04:58;;;;;;;10.40;1.50;;;14.40;99.90;;;;;;5073193;28;20204;-57
2022/10/17 01:07:27;;;;;;;6.83;1.70;;;14.40;99.90;;;;;;5072527;28;20676;-56
2022/10/17 01:09:55;;;;;;;9.53;1.87;;;14.40;99.90;;;;;;5072755;28;20221;-57
2022/10/17 01:12:25;;;;;;;8.50;1.67;;;14.50;99.90;;;;;;5072956;28;20208;-57
2022/10/17 01:15:08;;;;;;;6.60;1.83;;;14.50;99.90;;;;;;5072863;28;20207;-56
2022/10/17 01:17:44;;;;;;;3.33;1.60;;;14.50;99.90;;;;;;5073312;28;20212;-56
2022/10/17 01:20:42;;;;;;;7.47;1.77;;;14.50;99.90;;;;;;5075275;28;20240;-56
2022/10/17 01:23:27;;;;;;;12.87;2.50;;;14.50;99.90;;;;;;5074522;28;20215;-56
2022/10/17 01:26:03;;;;;;;7.87;1.77;;;14.40;99.90;;;;;;5073481;28;20274;-57
2022/10/17 01:28:52;;;;;;;12.27;2.07;;;14.30;99.90;;;;;;5072950;28;20212;-57
2022/10/17 01:31:23;;;;;;;10.10;2.07;;;14.30;99.90;;;;;;5074059;28;20220;-57
2022/10/17 01:34:00;;;;;;;8.27;1.67;;;14.20;99.90;;;;;;5073989;28;20216;-57
2022/10/17 01:36:36;;;;;;;4.77;1.63;;;14.20;99.90;;;;;;5073274;28;20204;-56
2022/10/17 01:39:10;;;;;;;5.10;1.60;;;14.20;99.90;;;;;;5072927;28;20227;-56
2022/10/17 01:41:42;;;;;;;8.00;1.90;;;14.30;99.90;;;;;;5073978;22;20701;-60
2022/10/17 01:44:13;;;;;;;6.53;1.47;;;14.30;99.90;;;;;;5047462;28;20235;-59
2022/10/17 01:46:44;;;;;;;4.80;1.90;;;14.30;99.90;;;;;;5051918;28;20620;-60
2022/10/17 01:49:14;;;;;;;3.43;1.87;;;14.30;99.90;;;;;;5051952;28;20205;-60
2022/10/17 01:51:44;;;;;;;5.30;2.50;;;14.30;99.90;;;;;;5051446;28;20602;-60
2022/10/17 01:54:18;;;;;;;13.43;3.13;;;14.30;99.90;;;;;;5051971;28;20585;-60
2022/10/17 01:56:47;;;;;;;8.40;1.90;;;14.30;99.90;;;;;;5051777;28;20209;-60
2022/10/17 01:59:19;;;;;;;5.67;2.27;;;14.30;99.90;;;;;;5051802;28;20225;-60
2022/10/17 02:01:51;;;;;;;7.87;2.13;;;14.30;99.90;;;;;;5051725;28;20244;-60
2022/10/17 02:04:18;;;;;;;4.47;2.03;;;14.30;99.90;;;;;;5051535;28;20669;-60
2022/10/17 02:06:44;;;;;;;5.83;2.30;;;14.20;99.90;;;;;;5051816;28;20657;-60
2022/10/17 02:09:21;;;;;;;6.20;2.00;;;14.20;99.90;;;;;;5051074;28;20680;-60
2022/10/17 02:12:03;;;;;;;8.53;2.23;;;14.20;99.90;;;;;;5051549;28;20229;-60
2022/10/17 02:14:43;;;;;;;5.73;1.90;;;14.20;99.90;;;;;;5051419;28;20210;-60
2022/10/17 02:17:19;;;;;;;8.53;2.03;;;14.10;99.90;;;;;;5051185;28;20491;-60
2022/10/17 02:19:55;;;;;;;8.67;1.70;;;14.00;99.90;;;;;;5051664;28;20249;-60
2022/10/17 02:22:32;;;;;;;3.13;1.77;;;14.00;99.90;;;;;;5051393;28;20582;-60
2022/10/17 02:25:06;;;;;;;4.97;1.80;;;14.00;99.90;;;;;;5051485;28;20225;-60
2022/10/17 02:27:40;;;;;;;8.07;1.87;;;14.00;99.90;;;;;;5051125;28;20210;-60
2022/10/17 02:30:11;;;;;;;13.30;1.60;;;13.90;99.90;;;;;;5051525;28;20271;-60
2022/10/17 02:32:47;;;;;;;7.97;1.93;;;13.80;99.90;;;;;;5051783;28;20214;-60
2022/10/17 02:35:15;;;;;;;5.37;1.70;;;13.80;99.90;;;;;;5051650;28;20209;-60
2022/10/17 02:37:44;;;;;;;5.40;1.80;;;13.80;99.90;;;;;;5050674;28;20210;-60
2022/10/17 02:40:13;;;;;;;4.80;1.70;;;13.80;99.90;;;;;;5051297;28;20626;-60
2022/10/17 02:42:42;;;;;;;3.73;1.67;;;13.80;99.90;;;;;;5051486;28;20209;-60
2022/10/17 02:45:09;;;;;;;7.17;1.83;;;13.80;99.90;;;;;;5051399;28;20224;-60
2022/10/17 02:47:41;;;;;;;4.07;1.60;;;13.80;99.90;;;;;;5050746;28;20561;-60
2022/10/17 02:50:09;;;;;;;5.87;1.60;;;13.70;99.90;;;;;;5051307;28;20247;-60
2022/10/17 02:52:40;;;;;;;4.13;1.83;;;13.80;99.90;;;;;;5051400;28;20213;-60
2022/10/17 02:55:13;;;;;;;3.23;1.57;;;13.70;99.90;;;;;;5051321;28;20205;-60
2022/10/17 02:57:44;;;;;;;3.50;1.70;;;13.70;99.90;;;;;;5053272;28;20769;-60
2022/10/17 03:00:14;;;;;;;7.60;2.10;;;13.70;99.90;;;;;;5054593;28;20316;-59
2022/10/17 03:02:44;;;;;;;3.30;1.70;;;13.70;99.90;;;;;;5054548;28;20220;-60
2022/10/17 03:05:13;;;;;;;4.37;1.90;;;13.70;99.90;;;;;;5054556;28;20600;-60
2022/10/17 03:07:39;;;;;;;2.70;1.40;;;13.70;99.90;;;;;;5053800;28;20688;-60
2022/10/17 03:10:07;;;;;;;48.57;42.30;;;13.70;99.90;;;;;;5054734;28;20230;-60
2022/10/17 03:12:34;;;;;;;8.33;2.47;;;13.70;99.90;;;;;;5054725;28;20213;-59
2022/10/17 03:15:00;;;;;;;11.33;1.93;;;13.70;99.90;;;;;;5054273;28;20235;-59
2022/10/17 03:17:27;;;;;;;4.27;1.70;;;13.70;99.90;;;;;;5053692;28;20205;-59
2022/10/17 03:19:55;;;;;;;5.03;1.80;;;13.70;99.90;;;;;;5054287;28;20232;-60
2022/10/17 03:22:22;;;;;;;8.47;2.30;;;13.70;99.90;;;;;;5054720;28;20205;-59
2022/10/17 03:24:48;;;;;;;10.13;2.00;;;13.60;99.90;;;;;;5054901;28;20205;-59
2022/10/17 03:27:16;;;;;;;9.30;2.20;;;13.60;99.90;;;;;;5054092;28;20756;-59
2022/10/17 03:29:42;;;;;;;4.87;2.90;;;13.60;99.90;;;;;;5055112;28;20554;-61
2022/10/17 03:32:09;;;;;;;6.17;2.50;;;13.60;99.90;;;;;;5054737;28;20233;-60
2022/10/17 03:34:36;;;;;;;9.73;2.23;;;13.60;99.90;;;;;;5054753;28;20225;-61
2022/10/17 03:37:04;;;;;;;6.17;2.20;;;13.60;99.90;;;;;;5054011;28;20228;-60
2022/10/17 03:39:31;;;;;;;3.30;1.93;;;13.50;99.90;;;;;;5054198;28;20249;-60
2022/10/17 03:41:57;;;;;;;24.97;16.70;;;13.60;99.90;;;;;;5054144;28;20237;-60
2022/10/17 03:44:24;;;;;;;9.07;3.60;;;13.60;99.90;;;;;;5052747;28;20556;-61
2022/10/17 03:46:51;;;;;;;8.70;3.40;;;13.60;99.90;;;;;;5053971;28;20626;-60
2022/10/17 03:49:18;;;;;;;7.60;2.40;;;13.50;99.90;;;;;;5053773;28;20206;-60
2022/10/17 03:51:44;;;;;;;15.57;7.57;;;13.50;99.90;;;;;;5053914;28;20606;-61
2022/10/17 03:54:12;;;;;;;32.93;21.67;;;13.50;99.90;;;;;;5053749;28;20205;-60
2022/10/17 03:56:39;;;;;;;24.47;15.97;;;13.50;99.90;;;;;;5054019;28;20692;-60
2022/10/17 03:59:06;;;;;;;12.03;5.33;;;13.40;99.90;;;;;;5053226;28;20229;-60
2022/10/17 04:01:33;;;;;;;7.30;3.00;;;13.40;99.90;;;;;;5054136;28;20229;-61
2022/10/17 04:03:59;;;;;;;15.17;6.00;;;13.40;99.90;;;;;;5053892;28;20209;-60
2022/10/17 04:06:26;;;;;;;10.20;4.57;;;13.40;99.90;;;;;;5053554;28;20209;-60
2022/10/17 04:08:53;;;;;;;4.07;2.00;;;13.40;99.90;;;;;;5052532;28;20289;-60
2022/10/17 04:11:22;;;;;;;7.63;2.20;;;13.40;99.90;;;;;;5053989;28;20235;-60
2022/10/17 04:13:53;;;;;;;5.20;3.30;;;13.40;99.90;;;;;;5053965;28;20206;-60
2022/10/17 04:16:20;;;;;;;6.03;2.73;;;13.30;99.90;;;;;;5054061;28;20734;-60
2022/10/17 04:18:47;;;;;;;4.40;2.20;;;13.30;99.90;;;;;;5053823;28;20209;-60
2022/10/17 04:21:13;;;;;;;6.57;2.60;;;13.30;99.90;;;;;;5053508;28;20237;-60
2022/10/17 04:23:40;;;;;;;3.57;2.10;;;13.30;99.90;;;;;;5053169;28;20581;-60
2022/10/17 04:26:07;;;;;;;5.13;2.37;;;13.20;99.90;;;;;;5053264;28;20236;-60
2022/10/17 04:28:36;;;;;;;12.00;3.10;;;13.30;99.90;;;;;;5052795;28;20217;-60
2022/10/17 04:31:04;;;;;;;6.93;2.43;;;13.30;99.90;;;;;;5053479;28;20225;-60
2022/10/17 04:33:31;;;;;;;8.37;2.93;;;13.30;99.90;;;;;;5053332;28;20555;-59
2022/10/17 04:35:59;;;;;;;4.53;2.20;;;13.30;99.90;;;;;;5053330;28;20220;-60
2022/10/17 04:38:26;;;;;;;14.40;3.60;;;13.20;99.90;;;;;;5052720;28;20218;-60
2022/10/17 04:40:53;;;;;;;7.77;2.97;;;13.20;99.90;;;;;;5053148;28;20233;-60
2022/10/17 04:43:20;;;;;;;11.57;2.63;;;13.30;99.90;;;;;;5053662;28;20267;-60
2022/10/17 04:45:48;;;;;;;22.47;11.07;;;13.20;99.90;;;;;;5052874;28;20638;-60
2022/10/17 04:48:15;;;;;;;8.00;3.53;;;13.30;99.90;;;;;;5052310;28;20213;-60
2022/10/17 04:50:41;;;;;;;8.77;4.40;;;13.20;99.90;;;;;;5052782;28;20229;-61
2022/10/17 04:53:08;;;;;;;26.13;11.30;;;13.30;99.90;;;;;;5052652;28;20209;-60
2022/10/17 04:55:38;;;;;;;12.57;8.87;;;13.30;99.90;;;;;;5052997;28;20206;-60
2022/10/17 04:58:05;;;;;;;9.70;6.07;;;13.30;99.90;;;;;;5052613;28;20201;-60
2022/10/17 05:00:32;;;;;;;22.53;14.43;;;13.30;99.90;;;;;;5052475;28;20229;-60
2022/10/17 05:03:00;;;;;;;9.40;4.27;;;13.30;99.90;;;;;;5052149;28;20210;-60
2022/10/17 05:05:26;;;;;;;8.23;4.00;;;13.30;99.90;;;;;;5052144;28;20666;-60
2022/10/17 05:07:53;;;;;;;18.57;7.77;;;13.30;99.90;;;;;;5051685;28;20210;-60
2022/10/17 05:10:20;;;;;;;8.67;3.07;;;13.30;99.90;;;;;;5052056;28;20217;-60
2022/10/17 05:12:47;;;;;;;8.23;3.40;;;13.30;99.90;;;;;;5052133;28;20209;-60
2022/10/17 05:15:14;;;;;;;5.00;4.03;;;13.30;99.90;;;;;;5052095;28;20209;-60
2022/10/17 05:17:41;;;;;;;6.93;3.17;;;13.30;99.90;;;;;;5051329;28;20233;-60
2022/10/17 05:20:10;;;;;;;4.97;2.90;;;13.30;99.90;;;;;;5051037;28;20613;-60
2022/10/17 05:22:38;;;;;;;4.17;2.60;;;13.30;99.90;;;;;;5052211;28;20209;-60
2022/10/17 05:25:05;;;;;;;6.70;3.33;;;13.30;99.90;;;;;;5052465;28;20629;-60
2022/10/17 05:27:32;;;;;;;3.53;2.47;;;13.30;99.90;;;;;;5051683;28;20681;-60
2022/10/17 05:29:59;;;;;;;12.93;4.37;;;13.30;99.90;;;;;;5052093;28;20197;-60
2022/10/17 05:32:26;;;;;;;9.90;4.60;;;13.40;99.90;;;;;;5052109;28;20584;-60
2022/10/17 05:34:52;;;;;;;7.17;3.87;;;13.40;99.90;;;;;;5051952;28;20213;-60
2022/10/17 05:37:20;;;;;;;6.90;3.27;;;13.40;99.90;;;;;;5051452;28;20212;-61
2022/10/17 05:39:47;;;;;;;6.53;3.10;;;13.50;99.90;;;;;;5051569;28;20225;-61
2022/10/17 05:42:14;;;;;;;10.70;5.23;;;13.50;99.90;;;;;;5051613;28;20219;-60
2022/10/17 05:44:40;;;;;;;7.93;2.60;;;13.60;99.90;;;;;;5052101;28;20270;-61
2022/10/17 05:47:07;;;;;;;4.47;2.40;;;13.60;99.90;;;;;;5051636;28;20209;-61
2022/10/17 05:49:34;;;;;;;4.63;2.40;;;13.50;99.90;;;;;;5051746;28;20209;-60
2022/10/17 05:52:01;;;;;;;4.87;2.70;;;13.50;99.90;;;;;;5052040;28;20229;-61
2022/10/17 05:54:29;;;;;;;4.10;2.27;;;13.60;99.90;;;;;;5051985;28;20618;-60
2022/10/17 05:56:56;;;;;;;8.47;2.80;;;13.60;99.90;;;;;;5051838;28;20209;-61
2022/10/17 05:59:25;;;;;;;8.50;2.10;;;13.60;99.90;;;;;;5050900;28;20209;-60
2022/10/17 06:01:52;;;;;;;10.17;2.40;;;13.70;99.90;;;;;;5051433;28;20570;-61
2022/10/17 06:04:19;;;;;;;5.33;2.70;;;13.70;99.90;;;;;;5051906;28;20205;-61
2022/10/17 06:06:46;;;;;;;6.67;2.33;;;13.70;99.90;;;;;;5051762;28;20202;-60
2022/10/17 06:09:13;;;;;;;5.43;2.40;;;13.60;99.90;;;;;;5051387;28;20206;-60
2022/10/17 06:11:41;;;;;;;5.37;2.00;;;13.70;99.90;;;;;;5051505;28;20222;-60
2022/10/17 06:14:08;;;;;;;3.43;2.10;;;13.80;99.90;;;;;;5051623;28;20217;-60
2022/10/17 06:16:34;;;;;;;7.03;2.40;;;13.80;99.90;;;;;;5051924;28;20233;-60
2022/10/17 06:19:01;;;;;;;2.37;2.00;;;13.80;99.90;;;;;;5051365;28;20236;-60
2022/10/17 06:21:28;;;;;;;4.33;1.90;;;13.90;99.90;;;;;;5051273;28;20709;-60
2022/10/17 06:23:55;;;;;;;9.10;2.10;;;14.00;99.90;;;;;;5051598;28;20673;-61
2022/10/17 06:26:21;;;;;;;4.10;1.97;;;14.00;99.90;;;;;;5051558;28;20217;-60
2022/10/17 06:28:49;;;;;;;4.00;1.90;;;14.10;99.90;;;;;;5050811;28;20245;-60
2022/10/17 06:31:17;;;;;;;7.57;2.20;;;14.20;99.90;;;;;;5053546;28;20225;-60
2022/10/17 06:33:44;;;;;;;4.00;1.60;;;14.50;99.90;;;;;;5055346;28;20225;-60
2022/10/17 06:36:13;;;;;;;7.40;1.77;;;14.80;99.90;;;;;;5055272;28;20591;-60
2022/10/17 06:38:40;;;;;;;5.70;2.03;;;15.20;99.90;;;;;;5054896;28;20558;-61
2022/10/17 06:41:08;;;;;;;12.13;2.10;;;15.40;99.90;;;;;;5054908;28;20232;-60
2022/10/17 06:43:35;;;;;;;5.93;1.67;;;15.50;99.90;;;;;;5055788;28;20214;-59
2022/10/17 06:46:04;;;;;;;7.35;1.67;;;15.50;99.90;;;;;;5055626;28;20208;-57
2022/10/17 06:48:30;;;;;;;2.72;1.45;;;15.80;99.90;;;;;;5055758;28;20205;-57
2022/10/17 06:51:00;;;;;;;4.55;1.60;;;16.20;99.90;;;;;;5055550;28;20222;-59
2022/10/17 06:53:28;;;;;;;3.30;1.75;;;16.60;99.90;;;;;;5056167;28;20239;-60
2022/10/17 06:56:00;;;;;;;3.58;1.50;;;16.90;99.90;;;;;;5056264;28;20233;-58
2022/10/17 06:58:26;;;;;;;3.25;1.35;;;17.10;99.90;;;;;;5055714;28;20202;-59
2022/10/17 07:00:57;;;;;;;5.32;1.77;;;17.30;99.90;;;;;;5057558;28;20237;-60
2022/10/17 07:03:26;;;;;;;6.55;1.58;;;17.90;99.90;;;;;;5059059;28;20225;-63
2022/10/17 07:05:52;;;;;;;5.55;1.52;;;18.60;99.90;;;;;;5063288;28;20206;-65
2022/10/17 07:08:19;;;;;;;2.90;1.55;;;19.10;99.90;;;;;;5044429;28;20210;-63
2022/10/17 07:10:46;;;;;;;6.32;1.50;;;19.40;99.90;;;;;;5042627;28;20224;-63
2022/10/17 07:13:13;;;;;;;9.45;1.75;;;19.70;99.90;;;;;;5054468;28;20216;-63
2022/10/17 07:15:40;;;;;;;3.92;1.58;;;19.70;99.90;;;;;;5055184;28;20206;-62
2022/10/17 07:18:07;;;;;;;3.42;1.52;;;19.40;99.90;;;;;;5055903;28;20214;-64
2022/10/17 07:20:36;;;;;;;6.13;1.80;;;18.80;99.90;;;;;;5056211;28;20229;-63
2022/10/17 07:23:02;;;;;;;3.92;1.48;;;18.20;99.90;;;;;;5055751;28;20209;-62
2022/10/17 07:25:29;;;;;;;9.38;1.83;;;17.70;99.90;;;;;;5055822;28;20206;-62
2022/10/17 07:27:57;;;;;;;8.93;3.58;;;17.50;99.90;;;;;;5058681;28;20206;-64
2022/10/17 07:30:24;;;;;;;7.57;5.60;;;17.40;99.90;;;;;;5058746;28;20701;-64
2022/10/17 07:32:53;;;;;;;7.07;2.40;;;17.40;99.90;;;;;;5052894;28;20209;-62
2022/10/17 07:35:20;;;;;;;5.18;1.60;;;17.20;99.90;;;;;;5053150;28;20613;-67
2022/10/17 07:37:48;;;;;;;9.27;1.80;;;17.00;99.90;;;;;;5052869;28;20205;-63
2022/10/17 07:40:15;;;;;;;10.52;2.00;;;16.90;99.90;;;;;;5077537;22;20243;-55
2022/10/17 07:42:42;;;;;;;4.93;1.80;;;17.00;99.90;;;;;;5044524;28;20221;-57
2022/10/17 07:45:09;;;;;;;2.35;1.70;;;17.20;99.90;;;;;;5054046;28;20584;-56
2022/10/17 07:47:36;;;;;;;4.85;1.60;;;17.20;99.90;;;;;;5053670;28;20582;-56
2022/10/17 07:50:04;;;;;;;3.50;1.60;;;17.10;99.90;;;;;;5054299;28;20206;-56
2022/10/17 07:52:30;;;;;;;5.72;1.70;;;17.20;99.90;;;;;;5054391;28;20603;-57
2022/10/17 07:54:59;;;;;;;2.95;1.60;;;17.40;99.90;;;;;;5054187;28;20205;-56
2022/10/17 07:57:26;;;;;;;5.45;2.00;;;17.60;99.90;;;;;;5053666;28;20232;-56
2022/10/17 07:59:53;;;;;;;5.63;1.95;;;17.80;99.90;;;;;;5052937;28;20225;-57
2022/10/17 08:02:22;;;;;;;3.53;1.60;;;18.00;99.90;;;;;;5054150;28;20230;-56
2022/10/17 08:04:49;;;;;;;5.82;1.85;;;18.30;99.90;;;;;;5053954;28;20205;-57
2022/10/17 08:07:16;;;;;;;5.28;1.70;;;18.50;99.90;;;;;;5053944;28;20201;-57
2022/10/17 08:09:43;;;;;;;2.60;1.45;;;18.70;99.90;;;;;;5053522;28;20216;-56
2022/10/17 08:12:13;;;;;;;3.55;1.70;;;18.80;99.90;;;;;;5054311;28;20249;-56
2022/10/17 08:14:40;;;;;;;2.45;1.58;;;18.90;99.90;;;;;;5054533;28;20664;-56
2022/10/17 08:17:07;;;;;;;9.23;2.05;;;19.00;99.90;;;;;;5053979;28;20580;-56
2022/10/17 08:19:33;;;;;;;5.97;2.13;;;19.10;99.90;;;;;;5053505;28;20213;-56
2022/10/17 08:22:01;;;;;;;9.27;2.28;;;19.20;99.90;;;;;;5053782;28;20279;-56
2022/10/17 08:24:27;;;;;;;13.85;3.03;;;19.30;99.90;;;;;;5053419;28;20205;-57
2022/10/17 08:26:56;;;;;;;3.78;2.10;;;19.40;99.90;;;;;;5053477;28;20649;-56
2022/10/17 08:29:24;;;;;;;4.68;1.88;;;19.40;99.90;;;;;;5052838;28;20300;-56
2022/10/17 08:31:52;;;;;;;6.43;1.98;;;19.50;99.90;;;;;;5053429;28;20256;-57
2022/10/17 08:34:19;;;;;;;5.38;1.85;;;19.50;99.90;;;;;;5053119;28;20205;-57
2022/10/17 08:36:45;;;;;;;7.88;2.38;;;19.70;99.90;;;;;;5053331;28;20862;-57
2022/10/17 08:39:12;;;;;;;4.55;2.22;;;19.80;99.90;;;;;;5052736;28;20674;-56
2022/10/17 08:41:53;;;;;;;7.07;2.00;;;19.90;99.90;;;;;;5053208;28;20232;-57
2022/10/17 08:44:33;;;;;;;16.25;2.83;;;20.00;99.90;;;;;;5053039;28;20639;-58
2022/10/17 08:47:03;;;;;;;4.90;2.10;;;20.10;99.90;;;;;;5053367;28;20212;-57
2022/10/17 08:49:37;;;;;;;8.55;2.50;;;20.20;99.90;;;;;;5052883;28;20216;-60
2022/10/17 08:52:11;;;;;;;5.90;2.35;;;20.30;99.90;;;;;;5052774;28;20244;-57
2022/10/17 08:54:41;;;;;;;6.28;2.25;;;20.40;99.90;;;;;;5053011;28;20205;-57
2022/10/17 08:57:12;;;;;;;6.93;2.30;;;20.50;99.90;;;;;;5034934;28;20451;-58
2022/10/17 08:59:41;;;;;;;6.50;2.20;;;20.50;99.90;;;;;;5041068;28;20267;-56
2022/10/17 09:02:28;;;;;;;3.90;1.85;;;20.60;99.90;;;;;;5051983;28;20235;-56
2022/10/17 09:05:15;;;;;;;8.55;1.80;;;20.80;99.90;;;;;;5051357;28;20208;-58
2022/10/17 09:07:47;;;;;;;4.45;2.00;;;20.80;99.90;;;;;;5051173;28;20646;-58
2022/10/17 09:10:25;;;;;;;4.82;2.45;;;21.00;99.90;;;;;;5051636;28;20209;-57
2022/10/17 09:13:05;;;;;;;4.10;2.00;;;21.20;99.90;;;;;;5051849;28;20505;-57
2022/10/17 09:15:49;;;;;;;6.47;1.90;;;21.30;99.90;;;;;;5051755;28;20673;-57
2022/10/17 09:18:20;;;;;;;6.00;1.70;;;21.40;99.90;;;;;;5051472;28;20221;-56
2022/10/17 09:20:51;;;;;;;8.85;3.15;;;21.60;99.90;;;;;;5051750;28;20226;-58
2022/10/17 09:23:22;;;;;;;2.60;1.60;;;21.80;99.90;;;;;;5051464;28;20205;-56
2022/10/17 09:25:52;;;;;;;3.47;1.33;;;22.00;99.90;;;;;;5032266;28;20659;-57
2022/10/17 09:28:21;;;;;;;3.92;1.98;;;22.20;99.90;;;;;;5031440;28;20253;-59
2022/10/17 09:30:56;;;;;;;3.95;1.77;;;22.30;99.90;;;;;;5031918;28;20302;-61
2022/10/17 09:33:27;;;;;;;4.32;1.75;;;22.40;99.90;;;;;;5031637;28;20212;-58
2022/10/17 09:35:56;;;;;;;5.50;1.85;;;22.40;99.90;;;;;;5031430;28;20206;-58
2022/10/17 09:38:26;;;;;;;6.82;1.85;;;22.50;99.90;;;;;;5031101;28;20214;-60
2022/10/17 09:40:56;;;;;;;3.88;1.48;;;22.60;99.90;;;;;;5031066;28;20717;-60
2022/10/17 09:43:25;;;;;;;4.90;1.25;;;22.70;99.90;;;;;;5031570;28;20709;-57
2022/10/17 09:46:05;;;;;;;7.55;1.75;;;22.80;99.90;;;;;;5030876;28;20213;-57
2022/10/17 09:48:36;;;;;;;5.07;1.40;;;22.80;99.90;;;;;;5031024;28;20210;-61
2022/10/17 09:51:05;;;;;;;2.97;1.25;;;22.90;99.90;;;;;;5030711;28;20229;-58
2022/10/17 09:53:36;;;;;;;4.32;1.40;;;22.90;99.90;;;;;;5028094;28;20309;-60
2022/10/17 09:56:08;;;;;;;3.70;1.25;;;23.00;99.90;;;;;;5030791;28;20212;-58
2022/10/17 09:58:42;;;;;;;4.45;1.40;;;23.00;99.90;;;;;;5030893;28;20261;-59
2022/10/17 10:01:18;;;;;;;6.28;1.60;;;23.10;99.90;;;;;;5031290;28;20226;-60
2022/10/17 10:03:45;;;;;;;5.85;1.52;;;23.30;99.90;;;;;;5030612;28;20209;-61
2022/10/17 10:06:14;;;;;;;5.07;1.70;;;23.30;99.90;;;;;;5033626;28;20202;-60
2022/10/17 10:08:50;;;;;;;4.70;1.50;;;23.40;99.90;;;;;;5033743;28;20772;-59
2022/10/17 10:11:17;;;;;;;4.53;1.50;;;23.60;99.90;;;;;;5033670;28;20308;-58
2022/10/17 10:13:48;;;;;;;5.32;1.33;;;23.70;99.90;;;;;;5034974;28;20214;-60
2022/10/17 10:16:20;;;;;;;2.80;1.33;;;23.60;99.90;;;;;;5035015;28;20736;-60
2022/10/17 10:18:48;;;;;;;6.63;2.08;;;23.50;99.90;;;;;;5034875;28;20210;-59
2022/10/17 10:21:17;;;;;;;3.20;1.55;;;23.50;99.90;;;;;;5035218;28;20222;-59
2022/10/17 10:23:45;;;;;;;4.60;1.25;;;23.50;99.90;;;;;;5035996;28;20213;-59
2022/10/17 10:26:24;;;;;;;5.10;1.38;;;23.60;99.90;;;;;;5035415;28;20206;-58
2022/10/17 10:28:54;;;;;;;2.35;1.20;;;23.80;99.90;;;;;;5035342;28;20214;-58
2022/10/17 10:31:35;;;;;;;4.78;1.40;;;24.00;99.90;;;;;;5035025;28;20274;-59
2022/10/17 10:34:12;;;;;;;6.72;1.13;;;24.10;99.90;;;;;;5035655;28;20220;-59
2022/10/17 10:36:53;;;;;;;3.50;1.40;;;24.20;99.90;;;;;;5035292;28;20684;-59
2022/10/17 10:39:35;;;;;;;3.35;1.30;;;24.30;99.90;;;;;;5034411;28;20202;-59
2022/10/17 10:42:04;;;;;;;3.25;1.35;;;24.50;99.90;;;;;;5033979;28;20236;-58
2022/10/17 10:44:33;;;;;;;4.60;1.60;;;24.60;99.90;;;;;;5034271;28;20212;-59
2022/10/17 10:47:15;;;;;;;3.40;1.00;;;24.70;99.90;;;;;;5034604;28;20222;-58
2022/10/17 10:49:42;;;;;;;1.77;1.20;;;24.90;99.90;;;;;;5034123;28;20210;-59
2022/10/17 10:52:17;;;;;;;3.35;1.23;;;25.00;99.90;;;;;;5034555;28;20240;-59
2022/10/17 10:54:51;;;;;;;2.67;1.27;;;25.00;99.90;;;;;;5034295;28;20209;-59
2022/10/17 10:57:25;;;;;;;4.18;1.67;;;25.10;99.90;;;;;;5034117;28;20313;-59
2022/10/17 10:59:58;;;;;;;2.67;1.17;;;25.20;99.90;;;;;;5033719;28;20198;-60
2022/10/17 11:02:30;;;;;;;3.80;1.30;;;25.30;99.90;;;;;;5034032;28;20593;-59
2022/10/17 11:05:03;;;;;;;3.30;1.13;;;25.30;99.90;;;;;;5033965;28;20206;-59
2022/10/17 11:07:34;;;;;;;6.47;1.50;;;25.40;99.90;;;;;;5033121;28;20222;-59
2022/10/17 11:10:12;;;;;;;2.97;1.38;;;25.40;99.90;;;;;;5033290;28;20210;-59
2022/10/17 11:12:43;;;;;;;2.67;1.25;;;25.50;99.90;;;;;;5034359;28;20297;-59
2022/10/17 11:15:20;;;;;;;5.70;1.45;;;25.50;99.90;;;;;;5034077;28;20583;-59
2022/10/17 11:17:57;;;;;;;6.78;2.20;;;25.60;99.90;;;;;;5032064;28;20209;-59
2022/10/17 11:20:32;;;;;;;6.18;1.48;;;25.60;99.90;;;;;;5033583;28;20217;-59
2022/10/17 11:23:09;;;;;;;3.10;1.40;;;25.70;99.90;;;;;;5033448;28;20705;-59
2022/10/17 11:25:38;;;;;;;2.40;1.50;;;25.80;99.90;;;;;;5034290;28;20253;-59
2022/10/17 11:28:13;;;;;;;2.63;1.40;;;25.60;99.90;;;;;;5033524;28;20210;-60
2022/10/17 11:30:46;;;;;;;2.45;1.35;;;25.60;99.90;;;;;;5033438;28;20226;-60
2022/10/17 11:33:20;;;;;;;2.25;1.20;;;25.70;99.90;;;;;;5033705;28;20662;-60
2022/10/17 11:35:51;;;;;;;2.70;1.20;;;25.80;99.90;;;;;;5033187;28;20717;-59
2022/10/17 11:38:22;;;;;;;3.40;1.52;;;25.80;99.90;;;;;;5033626;28;20206;-59
2022/10/17 11:40:51;;;;;;;4.63;1.60;;;25.90;99.90;;;;;;5033428;28;20234;-60
2022/10/17 11:43:23;;;;;;;4.82;1.50;;;26.00;99.90;;;;;;5033477;28;20233;-59
2022/10/17 11:45:59;;;;;;;4.20;1.33;;;26.00;99.90;;;;;;5033601;28;20221;-59
2022/10/17 11:48:31;;;;;;;4.35;1.30;;;26.00;99.90;;;;;;5033971;28;20214;-60
2022/10/17 11:51:04;;;;;;;2.97;1.35;;;26.00;99.90;;;;;;5034089;28;20268;-60
2022/10/17 11:53:42;;;;;;;5.57;1.30;;;26.00;99.90;;;;;;5033621;28;20204;-60
2022/10/17 11:56:11;;;;;;;4.95;1.52;;;26.20;99.90;;;;;;5034073;28;20584;-59
2022/10/17 11:58:44;;;;;;;7.85;1.55;;;26.30;99.90;;;;;;5034050;28;20626;-60
2022/10/17 12:01:22;;;;;;;5.95;1.42;;;26.50;99.90;;;;;;5034235;28;20247;-60
2022/10/17 12:04:22;;;;;;;3.88;1.50;;;26.50;99.90;;;;;;5033411;28;20213;-60
2022/10/17 12:07:09;;;;;;;2.88;1.30;;;26.60;99.90;;;;;;5034152;28;20693;-60
2022/10/17 12:09:44;;;;;;;1.77;1.20;;;26.70;99.90;;;;;;5033835;28;20642;-60
2022/10/17 12:12:25;;;;;;;3.25;1.58;;;26.80;99.90;;;;;;5033961;28;20693;-59
2022/10/17 12:14:52;;;;;;;6.00;2.13;;;26.90;99.90;;;;;;5034516;28;20210;-60
2022/10/17 12:17:33;;;;;;;3.55;1.85;;;27.00;99.90;;;;;;5035186;28;20213;-61
2022/10/17 12:20:29;;;;;;;2.70;1.70;;;27.10;99.90;;;;;;5033584;28;20212;-62
2022/10/17 12:23:00;;;;;;;5.78;1.50;;;27.20;99.90;;;;;;5035933;28;20226;-59
2022/10/17 12:25:31;;;;;;;4.25;1.70;;;27.20;99.90;;;;;;5034008;28;20213;-61
2022/10/17 12:28:14;;;;;;;5.13;1.77;;;27.30;99.90;;;;;;5032709;28;20215;-57
2022/10/17 12:30:52;;;;;;;2.38;1.60;;;27.30;99.90;;;;;;5032919;28;20230;-57
2022/10/17 12:33:22;;;;;;;3.08;1.60;;;27.30;99.90;;;;;;5031993;28;20237;-60
2022/10/17 12:35:51;;;;;;;6.72;2.00;;;27.30;99.90;;;;;;5031226;28;20244;-59
2022/10/17 12:38:24;;;;;;;3.30;1.50;;;27.40;99.90;;;;;;5033156;28;20218;-57
2022/10/17 12:41:05;;;;;;;6.18;1.90;;;27.30;99.90;;;;;;5033538;28;20249;-58
2022/10/17 12:43:57;;;;;;;4.20;1.60;;;27.50;99.90;;;;;;5033177;28;20702;-58
2022/10/17 12:46:48;;;;;;;6.68;1.67;;;27.60;99.90;;;;;;5033543;28;20289;-59
2022/10/17 12:49:23;;;;;;;7.38;2.63;;;27.70;99.40;;;;;;5033458;28;20272;-57
2022/10/17 12:52:20;;;;;;;4.35;1.70;;;27.80;99.40;;;;;;5033863;28;20229;-58
2022/10/17 12:54:51;;;;;;;5.60;1.85;;;27.80;99.00;;;;;;5033826;28;20252;-59
2022/10/17 12:57:23;;;;;;;6.72;1.70;;;27.70;99.40;;;;;;5033355;28;20210;-58
2022/10/17 12:59:50;;;;;;;7.47;1.95;;;27.60;99.90;;;;;;5032604;28;20225;-57
2022/10/17 13:02:20;;;;;;;3.67;1.45;;;27.40;99.90;;;;;;5033835;28;20596;-57